RJSC/GAJ METAR and TAF weather

Enter ICAO airport designator
Station Type Date Time Source
RJSC METAR 2021/07/29 10:36 UTC NOAA

RJSC 291036Z 11007KT 5000 TSRA BR FEW005 SCT010 FEW030CB BKN040 22/22 Q1003 RMK 1ST005 3ST010 1CB030 5CU040 A2964 FBL TS 15KM NE MOV NE


Station Type Date Time Source
RJSC Decoded METAR 2021/07/29 10:36 UTC NOAA

Yamagata Airport, Japan (RJSC) 38-25N 140-22E 108M
Jul 29, 2021 - 06:36 AM EDT / 2021.07.29 1036 UTC
Wind: from the ESE (110 degrees) at 8 MPH (7 KT):0
Visibility: 3 mile(s):0
Sky conditions: mostly cloudy
Weather: rain with thunder; mist; Cumulonimbus clouds observed
Temperature: 71 F (22 C)
Dew Point: 71 F (22 C)
Relative Humidity: 100%
Pressure (altimeter): 29.62 in. Hg (1003 hPa)
ob: RJSC 291036Z 11007KT 5000 TSRA BR FEW005 SCT010 FEW030CB BKN040 22/22 Q1003 RMK 1ST005 3ST010 1CB030 5CU040 A2964 FBL TS 15KM NE MOV NE
cycle: 10

Station Type Date Time Source
RJSC TAF UTC NOAA

Error!

Example: see airport list